sensor_id;sensor_type;location;lat;lon;timestamp;P1;durP1;ratioP1;P2;durP2;ratioP2
75993;SDS011;64680;53.800;9.988;2024-02-23T00:01:36;0.65;;;0.10;;
75993;SDS011;64680;53.800;9.988;2024-02-23T00:04:01;0.55;;;0.10;;
75993;SDS011;64680;53.800;9.988;2024-02-23T00:06:28;1.20;;;0.10;;
75993;SDS011;64680;53.800;9.988;2024-02-23T00:08:54;1.48;;;0.22;;
75993;SDS011;64680;53.800;9.988;2024-02-23T00:11:20;0.32;;;0.10;;
75993;SDS011;64680;53.800;9.988;2024-02-23T00:13:46;0.75;;;0.70;;
75993;SDS011;64680;53.800;9.988;2024-02-23T00:16:12;0.88;;;0.20;;
75993;SDS011;64680;53.800;9.988;2024-02-23T00:18:38;0.30;;;0.10;;
75993;SDS011;64680;53.800;9.988;2024-02-23T00:21:03;1.38;;;0.28;;
75993;SDS011;64680;53.800;9.988;2024-02-23T00:23:29;0.75;;;0.22;;
75993;SDS011;64680;53.800;9.988;2024-02-23T00:25:55;1.25;;;0.30;;
75993;SDS011;64680;53.800;9.988;2024-02-23T00:28:20;1.02;;;0.22;;
75993;SDS011;64680;53.800;9.988;2024-02-23T00:30:46;1.02;;;0.22;;
75993;SDS011;64680;53.800;9.988;2024-02-23T00:33:12;2.08;;;0.40;;
75993;SDS011;64680;53.800;9.988;2024-02-23T00:35:38;1.02;;;0.20;;
75993;SDS011;64680;53.800;9.988;2024-02-23T00:38:03;1.60;;;0.30;;
75993;SDS011;64680;53.800;9.988;2024-02-23T00:40:29;2.15;;;0.50;;
75993;SDS011;64680;53.800;9.988;2024-02-23T00:42:55;2.10;;;0.70;;
75993;SDS011;64680;53.800;9.988;2024-02-23T00:45:21;1.60;;;0.52;;
75993;SDS011;64680;53.800;9.988;2024-02-23T00:47:46;1.45;;;0.45;;
75993;SDS011;64680;53.800;9.988;2024-02-23T00:50:13;1.35;;;0.50;;
75993;SDS011;64680;53.800;9.988;2024-02-23T00:52:39;0.50;;;0.25;;
75993;SDS011;64680;53.800;9.988;2024-02-23T00:55:04;0.38;;;0.30;;
75993;SDS011;64680;53.800;9.988;2024-02-23T00:57:30;1.30;;;0.40;;
75993;SDS011;64680;53.800;9.988;2024-02-23T00:59:56;1.58;;;0.40;;
75993;SDS011;64680;53.800;9.988;2024-02-23T01:02:22;0.85;;;0.20;;
75993;SDS011;64680;53.800;9.988;2024-02-23T01:04:48;0.52;;;0.20;;
75993;SDS011;64680;53.800;9.988;2024-02-23T01:07:13;0.45;;;0.20;;
75993;SDS011;64680;53.800;9.988;2024-02-23T01:09:39;0.43;;;0.20;;
75993;SDS011;64680;53.800;9.988;2024-02-23T01:12:05;1.05;;;0.10;;
75993;SDS011;64680;53.800;9.988;2024-02-23T01:14:31;1.02;;;0.10;;
75993;SDS011;64680;53.800;9.988;2024-02-23T01:16:56;0.55;;;0.15;;
75993;SDS011;64680;53.800;9.988;2024-02-23T01:19:22;0.65;;;0.03;;
75993;SDS011;64680;53.800;9.988;2024-02-23T01:21:48;0.00;;;0.00;;
75993;SDS011;64680;53.800;9.988;2024-02-23T01:24:18;0.10;;;0.00;;
75993;SDS011;64680;53.800;9.988;2024-02-23T01:26:44;0.20;;;0.10;;
75993;SDS011;64680;53.800;9.988;2024-02-23T01:29:10;0.13;;;0.00;;
75993;SDS011;64680;53.800;9.988;2024-02-23T01:31:35;1.00;;;0.00;;
75993;SDS011;64680;53.800;9.988;2024-02-23T01:34:01;0.10;;;0.10;;
75993;SDS011;64680;53.800;9.988;2024-02-23T01:36:26;0.15;;;0.10;;
75993;SDS011;64680;53.800;9.988;2024-02-23T01:38:52;0.10;;;0.10;;
75993;SDS011;64680;53.800;9.988;2024-02-23T01:41:17;0.20;;;0.10;;
75993;SDS011;64680;53.800;9.988;2024-02-23T01:43:43;0.22;;;0.22;;
75993;SDS011;64680;53.800;9.988;2024-02-23T01:46:09;0.03;;;0.00;;
75993;SDS011;64680;53.800;9.988;2024-02-23T01:48:34;0.10;;;0.10;;
75993;SDS011;64680;53.800;9.988;2024-02-23T01:51:00;0.00;;;0.00;;
75993;SDS011;64680;53.800;9.988;2024-02-23T01:53:26;0.00;;;0.00;;
75993;SDS011;64680;53.800;9.988;2024-02-23T01:55:53;0.68;;;0.00;;
75993;SDS011;64680;53.800;9.988;2024-02-23T01:58:19;0.20;;;0.00;;
75993;SDS011;64680;53.800;9.988;2024-02-23T02:00:45;0.10;;;0.00;;
75993;SDS011;64680;53.800;9.988;2024-02-23T02:03:11;0.55;;;0.00;;
75993;SDS011;64680;53.800;9.988;2024-02-23T02:05:36;0.00;;;0.00;;
75993;SDS011;64680;53.800;9.988;2024-02-23T02:08:02;0.17;;;0.10;;
75993;SDS011;64680;53.800;9.988;2024-02-23T02:10:29;0.00;;;0.00;;
75993;SDS011;64680;53.800;9.988;2024-02-23T02:12:54;0.00;;;0.00;;
75993;SDS011;64680;53.800;9.988;2024-02-23T02:15:20;0.30;;;0.00;;
75993;SDS011;64680;53.800;9.988;2024-02-23T02:17:47;0.00;;;0.00;;
75993;SDS011;64680;53.800;9.988;2024-02-23T02:20:13;0.10;;;0.00;;
75993;SDS011;64680;53.800;9.988;2024-02-23T02:22:39;0.00;;;0.00;;
75993;SDS011;64680;53.800;9.988;2024-02-23T02:25:05;0.80;;;0.00;;
75993;SDS011;64680;53.800;9.988;2024-02-23T02:27:31;0.20;;;0.13;;
75993;SDS011;64680;53.800;9.988;2024-02-23T02:29:57;0.10;;;0.10;;
75993;SDS011;64680;53.800;9.988;2024-02-23T02:32:23;0.93;;;0.08;;
75993;SDS011;64680;53.800;9.988;2024-02-23T02:34:49;0.00;;;0.00;;
75993;SDS011;64680;53.800;9.988;2024-02-23T02:37:15;0.08;;;0.08;;
75993;SDS011;64680;53.800;9.988;2024-02-23T02:39:40;0.10;;;0.00;;
75993;SDS011;64680;53.800;9.988;2024-02-23T02:42:06;0.20;;;0.10;;
75993;SDS011;64680;53.800;9.988;2024-02-23T02:44:32;0.00;;;0.00;;
75993;SDS011;64680;53.800;9.988;2024-02-23T02:46:57;0.10;;;0.00;;
75993;SDS011;64680;53.800;9.988;2024-02-23T02:49:23;0.52;;;0.00;;
75993;SDS011;64680;53.800;9.988;2024-02-23T02:51:49;1.02;;;0.10;;
75993;SDS011;64680;53.800;9.988;2024-02-23T02:54:15;1.75;;;0.00;;
75993;SDS011;64680;53.800;9.988;2024-02-23T02:56:42;2.05;;;0.05;;
75993;SDS011;64680;53.800;9.988;2024-02-23T02:59:08;0.28;;;0.00;;
75993;SDS011;64680;53.800;9.988;2024-02-23T03:01:35;1.20;;;0.20;;
75993;SDS011;64680;53.800;9.988;2024-02-23T03:04:00;1.50;;;0.10;;
75993;SDS011;64680;53.800;9.988;2024-02-23T03:06:26;0.98;;;0.10;;
75993;SDS011;64680;53.800;9.988;2024-02-23T03:08:52;0.47;;;0.05;;
75993;SDS011;64680;53.800;9.988;2024-02-23T03:11:17;1.42;;;0.00;;
75993;SDS011;64680;53.800;9.988;2024-02-23T03:13:43;0.73;;;0.15;;
75993;SDS011;64680;53.800;9.988;2024-02-23T03:16:16;0.98;;;0.00;;
75993;SDS011;64680;53.800;9.988;2024-02-23T03:18:42;2.28;;;0.10;;
75993;SDS011;64680;53.800;9.988;2024-02-23T03:21:08;0.35;;;0.10;;
75993;SDS011;64680;53.800;9.988;2024-02-23T03:23:34;1.60;;;0.17;;
75993;SDS011;64680;53.800;9.988;2024-02-23T03:26:03;0.55;;;0.10;;
75993;SDS011;64680;53.800;9.988;2024-02-23T03:28:28;0.25;;;0.00;;
75993;SDS011;64680;53.800;9.988;2024-02-23T03:30:54;0.30;;;0.10;;
75993;SDS011;64680;53.800;9.988;2024-02-23T03:33:20;0.43;;;0.10;;
75993;SDS011;64680;53.800;9.988;2024-02-23T03:35:45;2.42;;;0.10;;
75993;SDS011;64680;53.800;9.988;2024-02-23T03:38:11;2.95;;;0.20;;
75993;SDS011;64680;53.800;9.988;2024-02-23T03:40:37;1.38;;;0.13;;
75993;SDS011;64680;53.800;9.988;2024-02-23T03:43:02;0.85;;;0.17;;
75993;SDS011;64680;53.800;9.988;2024-02-23T03:45:28;0.22;;;0.20;;
75993;SDS011;64680;53.800;9.988;2024-02-23T03:47:54;0.85;;;0.32;;
75993;SDS011;64680;53.800;9.988;2024-02-23T03:50:19;0.75;;;0.10;;
75993;SDS011;64680;53.800;9.988;2024-02-23T03:52:45;0.40;;;0.10;;
75993;SDS011;64680;53.800;9.988;2024-02-23T03:55:11;0.98;;;0.38;;
75993;SDS011;64680;53.800;9.988;2024-02-23T03:57:37;0.85;;;0.20;;
75993;SDS011;64680;53.800;9.988;2024-02-23T04:00:02;0.82;;;0.20;;
75993;SDS011;64680;53.800;9.988;2024-02-23T04:02:28;0.57;;;0.20;;
75993;SDS011;64680;53.800;9.988;2024-02-23T04:04:54;1.58;;;0.30;;
75993;SDS011;64680;53.800;9.988;2024-02-23T04:07:20;0.40;;;0.10;;
75993;SDS011;64680;53.800;9.988;2024-02-23T04:09:46;2.65;;;0.10;;
75993;SDS011;64680;53.800;9.988;2024-02-23T04:12:17;1.58;;;0.20;;
75993;SDS011;64680;53.800;9.988;2024-02-23T04:14:46;1.65;;;0.30;;
75993;SDS011;64680;53.800;9.988;2024-02-23T04:17:12;0.95;;;0.20;;
75993;SDS011;64680;53.800;9.988;2024-02-23T04:19:38;0.47;;;0.20;;
75993;SDS011;64680;53.800;9.988;2024-02-23T04:22:05;2.53;;;0.50;;
75993;SDS011;64680;53.800;9.988;2024-02-23T04:24:35;5.72;;;0.32;;
75993;SDS011;64680;53.800;9.988;2024-02-23T04:27:03;1.15;;;0.20;;
75993;SDS011;64680;53.800;9.988;2024-02-23T04:29:29;1.15;;;0.10;;
75993;SDS011;64680;53.800;9.988;2024-02-23T04:31:56;1.17;;;0.20;;
75993;SDS011;64680;53.800;9.988;2024-02-23T04:34:21;1.70;;;0.25;;
75993;SDS011;64680;53.800;9.988;2024-02-23T04:36:47;0.88;;;0.20;;
75993;SDS011;64680;53.800;9.988;2024-02-23T04:39:12;8.25;;;0.43;;
75993;SDS011;64680;53.800;9.988;2024-02-23T04:41:38;1.17;;;0.65;;
75993;SDS011;64680;53.800;9.988;2024-02-23T04:44:04;2.05;;;0.30;;
75993;SDS011;64680;53.800;9.988;2024-02-23T04:46:30;0.98;;;0.32;;
75993;SDS011;64680;53.800;9.988;2024-02-23T04:48:56;1.70;;;0.95;;
75993;SDS011;64680;53.800;9.988;2024-02-23T04:51:22;3.13;;;0.50;;
75993;SDS011;64680;53.800;9.988;2024-02-23T04:53:48;3.25;;;0.50;;
75993;SDS011;64680;53.800;9.988;2024-02-23T04:56:14;2.25;;;0.40;;
75993;SDS011;64680;53.800;9.988;2024-02-23T04:58:40;2.35;;;0.60;;
75993;SDS011;64680;53.800;9.988;2024-02-23T05:01:07;4.43;;;1.33;;
75993;SDS011;64680;53.800;9.988;2024-02-23T05:03:33;2.97;;;0.40;;
75993;SDS011;64680;53.800;9.988;2024-02-23T05:05:59;1.48;;;0.40;;
75993;SDS011;64680;53.800;9.988;2024-02-23T05:08:25;2.00;;;0.68;;
75993;SDS011;64680;53.800;9.988;2024-02-23T05:10:52;2.53;;;1.02;;
75993;SDS011;64680;53.800;9.988;2024-02-23T05:13:18;1.55;;;0.57;;
75993;SDS011;64680;53.800;9.988;2024-02-23T05:15:43;2.25;;;0.70;;
75993;SDS011;64680;53.800;9.988;2024-02-23T05:18:09;2.00;;;0.90;;
75993;SDS011;64680;53.800;9.988;2024-02-23T05:20:34;3.45;;;0.90;;
75993;SDS011;64680;53.800;9.988;2024-02-23T05:23:00;2.95;;;0.98;;
75993;SDS011;64680;53.800;9.988;2024-02-23T05:25:26;3.22;;;1.52;;
75993;SDS011;64680;53.800;9.988;2024-02-23T05:27:52;2.67;;;1.13;;
75993;SDS011;64680;53.800;9.988;2024-02-23T05:30:17;2.55;;;0.93;;
75993;SDS011;64680;53.800;9.988;2024-02-23T05:32:43;4.53;;;1.17;;
75993;SDS011;64680;53.800;9.988;2024-02-23T05:35:09;3.78;;;1.58;;
75993;SDS011;64680;53.800;9.988;2024-02-23T05:37:37;3.60;;;1.92;;
75993;SDS011;64680;53.800;9.988;2024-02-23T05:40:03;2.80;;;0.90;;
75993;SDS011;64680;53.800;9.988;2024-02-23T05:42:32;1.88;;;0.90;;
75993;SDS011;64680;53.800;9.988;2024-02-23T05:44:58;2.47;;;1.23;;
75993;SDS011;64680;53.800;9.988;2024-02-23T05:47:23;1.63;;;1.15;;
75993;SDS011;64680;53.800;9.988;2024-02-23T05:49:50;2.22;;;1.27;;
75993;SDS011;64680;53.800;9.988;2024-02-23T05:52:16;3.05;;;0.85;;
75993;SDS011;64680;53.800;9.988;2024-02-23T05:54:41;4.22;;;1.08;;
75993;SDS011;64680;53.800;9.988;2024-02-23T05:57:07;2.35;;;0.90;;
75993;SDS011;64680;53.800;9.988;2024-02-23T05:59:33;5.15;;;1.10;;
75993;SDS011;64680;53.800;9.988;2024-02-23T06:01:59;2.45;;;1.15;;
75993;SDS011;64680;53.800;9.988;2024-02-23T06:04:24;2.40;;;2.00;;
75993;SDS011;64680;53.800;9.988;2024-02-23T06:06:50;2.45;;;1.27;;
75993;SDS011;64680;53.800;9.988;2024-02-23T06:09:15;4.65;;;1.00;;
75993;SDS011;64680;53.800;9.988;2024-02-23T06:11:41;3.85;;;1.08;;
75993;SDS011;64680;53.800;9.988;2024-02-23T06:14:07;2.15;;;1.73;;
75993;SDS011;64680;53.800;9.988;2024-02-23T06:16:33;2.10;;;0.90;;
75993;SDS011;64680;53.800;9.988;2024-02-23T06:18:59;1.90;;;0.95;;
75993;SDS011;64680;53.800;9.988;2024-02-23T06:21:24;3.05;;;1.00;;
75993;SDS011;64680;53.800;9.988;2024-02-23T06:23:50;3.63;;;0.90;;
75993;SDS011;64680;53.800;9.988;2024-02-23T06:26:16;3.22;;;1.35;;
75993;SDS011;64680;53.800;9.988;2024-02-23T06:28:42;3.47;;;1.10;;
75993;SDS011;64680;53.800;9.988;2024-02-23T06:31:08;3.33;;;0.98;;
75993;SDS011;64680;53.800;9.988;2024-02-23T06:33:34;5.03;;;0.85;;
75993;SDS011;64680;53.800;9.988;2024-02-23T06:36:01;2.55;;;1.00;;
75993;SDS011;64680;53.800;9.988;2024-02-23T06:38:28;4.00;;;1.10;;
75993;SDS011;64680;53.800;9.988;2024-02-23T06:40:53;3.17;;;0.82;;
75993;SDS011;64680;53.800;9.988;2024-02-23T06:43:21;2.60;;;0.73;;
75993;SDS011;64680;53.800;9.988;2024-02-23T06:45:46;4.13;;;1.00;;
75993;SDS011;64680;53.800;9.988;2024-02-23T06:48:12;3.67;;;0.90;;
75993;SDS011;64680;53.800;9.988;2024-02-23T06:50:38;2.80;;;0.70;;
75993;SDS011;64680;53.800;9.988;2024-02-23T06:53:03;2.30;;;0.93;;
75993;SDS011;64680;53.800;9.988;2024-02-23T06:55:30;3.63;;;0.73;;
75993;SDS011;64680;53.800;9.988;2024-02-23T06:57:55;4.47;;;1.02;;
75993;SDS011;64680;53.800;9.988;2024-02-23T07:00:21;2.75;;;1.10;;
75993;SDS011;64680;53.800;9.988;2024-02-23T07:02:47;4.05;;;1.30;;
75993;SDS011;64680;53.800;9.988;2024-02-23T07:05:12;3.95;;;1.17;;
75993;SDS011;64680;53.800;9.988;2024-02-23T07:07:39;3.03;;;1.40;;
75993;SDS011;64680;53.800;9.988;2024-02-23T07:10:05;3.17;;;1.23;;
75993;SDS011;64680;53.800;9.988;2024-02-23T07:12:31;3.40;;;1.42;;
75993;SDS011;64680;53.800;9.988;2024-02-23T07:14:57;2.83;;;1.50;;
75993;SDS011;64680;53.800;9.988;2024-02-23T07:17:23;3.40;;;1.38;;
75993;SDS011;64680;53.800;9.988;2024-02-23T07:19:48;3.13;;;1.25;;
75993;SDS011;64680;53.800;9.988;2024-02-23T07:22:15;1.88;;;1.30;;
75993;SDS011;64680;53.800;9.988;2024-02-23T07:24:43;3.78;;;1.27;;
75993;SDS011;64680;53.800;9.988;2024-02-23T07:27:09;5.32;;;1.30;;
75993;SDS011;64680;53.800;9.988;2024-02-23T07:29:34;2.95;;;1.40;;
75993;SDS011;64680;53.800;9.988;2024-02-23T07:32:00;3.70;;;1.00;;
75993;SDS011;64680;53.800;9.988;2024-02-23T07:34:26;3.30;;;1.35;;
75993;SDS011;64680;53.800;9.988;2024-02-23T07:36:52;2.83;;;1.00;;
75993;SDS011;64680;53.800;9.988;2024-02-23T07:39:19;3.15;;;1.00;;
75993;SDS011;64680;53.800;9.988;2024-02-23T07:41:45;4.00;;;1.40;;
75993;SDS011;64680;53.800;9.988;2024-02-23T07:44:10;3.90;;;1.10;;
75993;SDS011;64680;53.800;9.988;2024-02-23T07:46:36;4.13;;;1.33;;
75993;SDS011;64680;53.800;9.988;2024-02-23T07:49:02;2.55;;;0.93;;
75993;SDS011;64680;53.800;9.988;2024-02-23T07:51:29;2.92;;;1.10;;
75993;SDS011;64680;53.800;9.988;2024-02-23T07:53:55;3.28;;;1.08;;
75993;SDS011;64680;53.800;9.988;2024-02-23T07:56:20;3.88;;;1.00;;
75993;SDS011;64680;53.800;9.988;2024-02-23T07:58:46;2.50;;;1.17;;
75993;SDS011;64680;53.800;9.988;2024-02-23T08:01:12;3.15;;;1.33;;
75993;SDS011;64680;53.800;9.988;2024-02-23T08:03:40;2.80;;;0.93;;
75993;SDS011;64680;53.800;9.988;2024-02-23T08:06:06;3.25;;;1.33;;
75993;SDS011;64680;53.800;9.988;2024-02-23T08:08:32;4.80;;;1.25;;
75993;SDS011;64680;53.800;9.988;2024-02-23T08:11:00;2.72;;;1.02;;
75993;SDS011;64680;53.800;9.988;2024-02-23T08:13:29;3.53;;;1.50;;
75993;SDS011;64680;53.800;9.988;2024-02-23T08:15:54;4.38;;;1.60;;
75993;SDS011;64680;53.800;9.988;2024-02-23T08:18:20;2.90;;;1.60;;
75993;SDS011;64680;53.800;9.988;2024-02-23T08:20:47;3.13;;;1.48;;
75993;SDS011;64680;53.800;9.988;2024-02-23T08:23:13;2.47;;;1.30;;
75993;SDS011;64680;53.800;9.988;2024-02-23T08:25:39;2.55;;;1.60;;
75993;SDS011;64680;53.800;9.988;2024-02-23T08:28:04;3.65;;;1.25;;
75993;SDS011;64680;53.800;9.988;2024-02-23T08:30:31;2.85;;;1.10;;
75993;SDS011;64680;53.800;9.988;2024-02-23T08:32:56;4.60;;;1.00;;
75993;SDS011;64680;53.800;9.988;2024-02-23T08:35:22;7.03;;;1.38;;
75993;SDS011;64680;53.800;9.988;2024-02-23T08:37:47;4.90;;;1.38;;
75993;SDS011;64680;53.800;9.988;2024-02-23T08:40:14;2.05;;;1.20;;
75993;SDS011;64680;53.800;9.988;2024-02-23T08:42:39;2.22;;;1.02;;
75993;SDS011;64680;53.800;9.988;2024-02-23T08:45:05;2.40;;;1.25;;
75993;SDS011;64680;53.800;9.988;2024-02-23T08:47:31;7.13;;;1.30;;
75993;SDS011;64680;53.800;9.988;2024-02-23T08:49:59;2.65;;;1.05;;
75993;SDS011;64680;53.800;9.988;2024-02-23T08:52:24;3.60;;;1.13;;
75993;SDS011;64680;53.800;9.988;2024-02-23T08:54:50;4.00;;;1.48;;
75993;SDS011;64680;53.800;9.988;2024-02-23T08:57:16;2.97;;;0.85;;
75993;SDS011;64680;53.800;9.988;2024-02-23T08:59:44;5.03;;;1.42;;
75993;SDS011;64680;53.800;9.988;2024-02-23T09:02:13;2.95;;;0.95;;
75993;SDS011;64680;53.800;9.988;2024-02-23T09:04:39;4.50;;;1.40;;
75993;SDS011;64680;53.800;9.988;2024-02-23T09:07:05;5.82;;;1.50;;
75993;SDS011;64680;53.800;9.988;2024-02-23T09:09:30;5.10;;;1.30;;
75993;SDS011;64680;53.800;9.988;2024-02-23T09:11:56;6.43;;;1.33;;
75993;SDS011;64680;53.800;9.988;2024-02-23T09:14:22;8.35;;;2.08;;
75993;SDS011;64680;53.800;9.988;2024-02-23T09:16:47;3.42;;;1.25;;
75993;SDS011;64680;53.800;9.988;2024-02-23T09:19:16;8.50;;;1.30;;
75993;SDS011;64680;53.800;9.988;2024-02-23T09:21:43;6.15;;;1.50;;
75993;SDS011;64680;53.800;9.988;2024-02-23T09:24:09;5.90;;;1.40;;
75993;SDS011;64680;53.800;9.988;2024-02-23T09:26:34;3.88;;;1.10;;
75993;SDS011;64680;53.800;9.988;2024-02-23T09:29:00;4.70;;;1.60;;
75993;SDS011;64680;53.800;9.988;2024-02-23T09:31:25;5.00;;;1.25;;
75993;SDS011;64680;53.800;9.988;2024-02-23T09:33:53;5.45;;;1.00;;
75993;SDS011;64680;53.800;9.988;2024-02-23T09:36:20;4.55;;;0.93;;
75993;SDS011;64680;53.800;9.988;2024-02-23T09:38:45;2.15;;;0.82;;
75993;SDS011;64680;53.800;9.988;2024-02-23T09:41:23;4.80;;;0.95;;
75993;SDS011;64680;53.800;9.988;2024-02-23T09:43:49;5.85;;;1.05;;
75993;SDS011;64680;53.800;9.988;2024-02-23T09:46:15;3.88;;;1.42;;
75993;SDS011;64680;53.800;9.988;2024-02-23T09:48:43;3.90;;;1.10;;
75993;SDS011;64680;53.800;9.988;2024-02-23T09:51:12;3.42;;;0.90;;
75993;SDS011;64680;53.800;9.988;2024-02-23T09:53:38;4.30;;;0.88;;
75993;SDS011;64680;53.800;9.988;2024-02-23T09:56:04;2.40;;;0.70;;
75993;SDS011;64680;53.800;9.988;2024-02-23T09:58:31;6.95;;;1.10;;
75993;SDS011;64680;53.800;9.988;2024-02-23T10:00:58;3.78;;;1.25;;
75993;SDS011;64680;53.800;9.988;2024-02-23T10:03:25;3.45;;;1.10;;
75993;SDS011;64680;53.800;9.988;2024-02-23T10:05:52;2.08;;;0.88;;
75993;SDS011;64680;53.800;9.988;2024-02-23T10:08:17;4.57;;;0.63;;
75993;SDS011;64680;53.800;9.988;2024-02-23T10:10:45;1.80;;;0.52;;
75993;SDS011;64680;53.800;9.988;2024-02-23T10:13:11;3.95;;;0.93;;
75993;SDS011;64680;53.800;9.988;2024-02-23T10:15:37;4.72;;;1.00;;
75993;SDS011;64680;53.800;9.988;2024-02-23T10:18:03;3.90;;;1.05;;
75993;SDS011;64680;53.800;9.988;2024-02-23T10:20:29;2.80;;;0.70;;
75993;SDS011;64680;53.800;9.988;2024-02-23T10:22:54;3.17;;;1.08;;
75993;SDS011;64680;53.800;9.988;2024-02-23T10:25:21;2.88;;;0.50;;
75993;SDS011;64680;53.800;9.988;2024-02-23T10:27:47;4.43;;;0.80;;
75993;SDS011;64680;53.800;9.988;2024-02-23T10:30:12;4.28;;;0.50;;
75993;SDS011;64680;53.800;9.988;2024-02-23T10:32:40;3.22;;;0.90;;
75993;SDS011;64680;53.800;9.988;2024-02-23T10:35:15;5.28;;;0.70;;
75993;SDS011;64680;53.800;9.988;2024-02-23T10:37:45;3.55;;;0.50;;
75993;SDS011;64680;53.800;9.988;2024-02-23T10:40:15;3.50;;;0.50;;
75993;SDS011;64680;53.800;9.988;2024-02-23T10:42:43;3.10;;;0.65;;
75993;SDS011;64680;53.800;9.988;2024-02-23T10:45:16;1.80;;;0.35;;
75993;SDS011;64680;53.800;9.988;2024-02-23T10:47:46;1.88;;;1.00;;
75993;SDS011;64680;53.800;9.988;2024-02-23T10:50:13;5.20;;;0.80;;
75993;SDS011;64680;53.800;9.988;2024-02-23T10:52:43;2.08;;;0.63;;
75993;SDS011;64680;53.800;9.988;2024-02-23T10:55:09;2.70;;;0.63;;
75993;SDS011;64680;53.800;9.988;2024-02-23T10:57:35;5.97;;;0.73;;
75993;SDS011;64680;53.800;9.988;2024-02-23T11:00:01;5.15;;;0.85;;
75993;SDS011;64680;53.800;9.988;2024-02-23T11:02:31;4.93;;;0.80;;
75993;SDS011;64680;53.800;9.988;2024-02-23T11:04:58;1.38;;;0.60;;
75993;SDS011;64680;53.800;9.988;2024-02-23T11:07:24;2.55;;;0.47;;
75993;SDS011;64680;53.800;9.988;2024-02-23T11:09:54;3.08;;;0.50;;
75993;SDS011;64680;53.800;9.988;2024-02-23T11:12:23;3.60;;;0.80;;
75993;SDS011;64680;53.800;9.988;2024-02-23T11:14:50;2.17;;;0.73;;
75993;SDS011;64680;53.800;9.988;2024-02-23T11:17:19;2.60;;;1.10;;
75993;SDS011;64680;53.800;9.988;2024-02-23T11:19:46;4.38;;;1.05;;
75993;SDS011;64680;53.800;9.988;2024-02-23T11:22:14;4.88;;;1.00;;
75993;SDS011;64680;53.800;9.988;2024-02-23T11:24:43;3.17;;;1.30;;
75993;SDS011;64680;53.800;9.988;2024-02-23T11:27:13;2.47;;;0.95;;
75993;SDS011;64680;53.800;9.988;2024-02-23T11:29:42;2.33;;;0.70;;
75993;SDS011;64680;53.800;9.988;2024-02-23T11:32:17;1.65;;;0.70;;
75993;SDS011;64680;53.800;9.988;2024-02-23T11:34:55;4.50;;;0.88;;
75993;SDS011;64680;53.800;9.988;2024-02-23T11:37:22;2.50;;;0.95;;
75993;SDS011;64680;53.800;9.988;2024-02-23T11:39:47;4.95;;;0.77;;
75993;SDS011;64680;53.800;9.988;2024-02-23T11:42:14;3.28;;;1.02;;
75993;SDS011;64680;53.800;9.988;2024-02-23T11:44:39;2.70;;;0.60;;
75993;SDS011;64680;53.800;9.988;2024-02-23T11:47:06;3.15;;;0.85;;
75993;SDS011;64680;53.800;9.988;2024-02-23T11:49:32;2.60;;;0.68;;
75993;SDS011;64680;53.800;9.988;2024-02-23T11:51:58;6.13;;;0.93;;
75993;SDS011;64680;53.800;9.988;2024-02-23T11:54:24;2.30;;;0.43;;
75993;SDS011;64680;53.800;9.988;2024-02-23T11:56:50;3.13;;;0.75;;
75993;SDS011;64680;53.800;9.988;2024-02-23T11:59:18;2.15;;;0.70;;
75993;SDS011;64680;53.800;9.988;2024-02-23T12:01:45;1.17;;;0.60;;
75993;SDS011;64680;53.800;9.988;2024-02-23T12:04:11;1.75;;;0.40;;
75993;SDS011;64680;53.800;9.988;2024-02-23T12:06:36;3.03;;;0.73;;
75993;SDS011;64680;53.800;9.988;2024-02-23T12:09:02;2.25;;;0.50;;
75993;SDS011;64680;53.800;9.988;2024-02-23T12:11:29;2.47;;;0.43;;
75993;SDS011;64680;53.800;9.988;2024-02-23T12:13:56;2.30;;;0.50;;
75993;SDS011;64680;53.800;9.988;2024-02-23T12:16:22;2.05;;;0.43;;
75993;SDS011;64680;53.800;9.988;2024-02-23T12:18:55;3.00;;;1.13;;
75993;SDS011;64680;53.800;9.988;2024-02-23T12:21:21;1.50;;;0.57;;
75993;SDS011;64680;53.800;9.988;2024-02-23T12:23:48;2.50;;;0.65;;
75993;SDS011;64680;53.800;9.988;2024-02-23T12:26:16;3.13;;;0.60;;
75993;SDS011;64680;53.800;9.988;2024-02-23T12:28:42;2.67;;;0.57;;
75993;SDS011;64680;53.800;9.988;2024-02-23T12:31:09;6.45;;;0.90;;
75993;SDS011;64680;53.800;9.988;2024-02-23T12:33:35;3.10;;;0.40;;
75993;SDS011;64680;53.800;9.988;2024-02-23T12:36:03;1.80;;;0.63;;
75993;SDS011;64680;53.800;9.988;2024-02-23T12:38:29;3.80;;;0.80;;
75993;SDS011;64680;53.800;9.988;2024-02-23T12:40:55;2.17;;;0.40;;
75993;SDS011;64680;53.800;9.988;2024-02-23T12:43:21;2.83;;;0.52;;
75993;SDS011;64680;53.800;9.988;2024-02-23T12:45:49;2.42;;;0.90;;
75993;SDS011;64680;53.800;9.988;2024-02-23T12:48:19;1.83;;;0.70;;
75993;SDS011;64680;53.800;9.988;2024-02-23T12:50:48;2.33;;;0.50;;
75993;SDS011;64680;53.800;9.988;2024-02-23T12:53:34;1.75;;;0.50;;
75993;SDS011;64680;53.800;9.988;2024-02-23T12:56:04;3.00;;;0.60;;
75993;SDS011;64680;53.800;9.988;2024-02-23T12:58:37;2.03;;;0.82;;
75993;SDS011;64680;53.800;9.988;2024-02-23T13:01:04;3.55;;;0.60;;
75993;SDS011;64680;53.800;9.988;2024-02-23T13:03:31;2.05;;;0.40;;
75993;SDS011;64680;53.800;9.988;2024-02-23T13:05:58;1.77;;;0.38;;
75993;SDS011;64680;53.800;9.988;2024-02-23T13:08:24;1.77;;;0.50;;
75993;SDS011;64680;53.800;9.988;2024-02-23T13:10:52;2.75;;;0.43;;
75993;SDS011;64680;53.800;9.988;2024-02-23T13:13:18;4.28;;;0.50;;
75993;SDS011;64680;53.800;9.988;2024-02-23T13:15:45;3.17;;;0.70;;
75993;SDS011;64680;53.800;9.988;2024-02-23T13:18:11;2.58;;;0.60;;
75993;SDS011;64680;53.800;9.988;2024-02-23T13:20:37;4.25;;;0.70;;
75993;SDS011;64680;53.800;9.988;2024-02-23T13:23:04;1.80;;;0.65;;
75993;SDS011;64680;53.800;9.988;2024-02-23T13:25:32;2.28;;;0.60;;
75993;SDS011;64680;53.800;9.988;2024-02-23T13:27:57;1.60;;;0.60;;
75993;SDS011;64680;53.800;9.988;2024-02-23T13:30:23;3.38;;;0.40;;
75993;SDS011;64680;53.800;9.988;2024-02-23T13:32:49;2.20;;;0.55;;
75993;SDS011;64680;53.800;9.988;2024-02-23T13:35:14;2.58;;;0.40;;
75993;SDS011;64680;53.800;9.988;2024-02-23T13:37:42;2.67;;;0.50;;
75993;SDS011;64680;53.800;9.988;2024-02-23T13:40:08;3.50;;;0.55;;
75993;SDS011;64680;53.800;9.988;2024-02-23T13:42:34;2.13;;;0.40;;
75993;SDS011;64680;53.800;9.988;2024-02-23T13:45:01;1.05;;;0.50;;
75993;SDS011;64680;53.800;9.988;2024-02-23T13:47:26;2.65;;;0.60;;
75993;SDS011;64680;53.800;9.988;2024-02-23T13:49:52;4.10;;;1.30;;
75993;SDS011;64680;53.800;9.988;2024-02-23T13:52:17;1.40;;;0.40;;
75993;SDS011;64680;53.800;9.988;2024-02-23T13:54:43;2.45;;;0.60;;
75993;SDS011;64680;53.800;9.988;2024-02-23T13:57:08;1.85;;;0.55;;
75993;SDS011;64680;53.800;9.988;2024-02-23T13:59:34;1.55;;;0.60;;
75993;SDS011;64680;53.800;9.988;2024-02-23T14:02:00;1.15;;;0.38;;
75993;SDS011;64680;53.800;9.988;2024-02-23T14:04:25;2.05;;;0.50;;
75993;SDS011;64680;53.800;9.988;2024-02-23T14:06:51;1.23;;;0.38;;
75993;SDS011;64680;53.800;9.988;2024-02-23T14:09:17;2.08;;;0.60;;
75993;SDS011;64680;53.800;9.988;2024-02-23T14:11:43;3.65;;;0.47;;
75993;SDS011;64680;53.800;9.988;2024-02-23T14:14:10;1.73;;;0.38;;
75993;SDS011;64680;53.800;9.988;2024-02-23T14:16:35;1.35;;;0.30;;
75993;SDS011;64680;53.800;9.988;2024-02-23T14:19:01;1.02;;;0.32;;
75993;SDS011;64680;53.800;9.988;2024-02-23T14:21:27;2.67;;;1.15;;
75993;SDS011;64680;53.800;9.988;2024-02-23T14:23:52;1.63;;;0.40;;
75993;SDS011;64680;53.800;9.988;2024-02-23T14:26:18;1.98;;;0.40;;
75993;SDS011;64680;53.800;9.988;2024-02-23T14:28:43;1.40;;;0.30;;
75993;SDS011;64680;53.800;9.988;2024-02-23T14:31:09;1.27;;;0.20;;
75993;SDS011;64680;53.800;9.988;2024-02-23T14:33:35;2.85;;;0.30;;
75993;SDS011;64680;53.800;9.988;2024-02-23T14:36:00;1.00;;;0.22;;
75993;SDS011;64680;53.800;9.988;2024-02-23T14:38:26;1.45;;;0.30;;
75993;SDS011;64680;53.800;9.988;2024-02-23T14:40:51;1.55;;;0.40;;
75993;SDS011;64680;53.800;9.988;2024-02-23T14:43:17;1.65;;;0.50;;